Boueff, Arkansas
Current Conditions -  °F | °C
As of 5:53 AM on Thursday 29 Jan 2015 (Local Time) from KGLH Reporting Station
Few Clouds Few Clouds  
Wind Chill: 53°   Ceiling: Unl
Heat Index: 53°   Visibility: 10mi
Dew Point: 45°   Wind: 14mph
Humidity: 74%   Direction: 200°SSW
Pressure: 30.09"   Gusts: NA
Location:  33.1306°N, 91.2896°W
Report Text: KGLH 291153Z AUTO 20012KT 10SM FEW110 12/07 A3009 RMK AO2 SLP197 T01170072 10133 20083 55006
Loading
Personal Weather Stations






























Interactive Weather Map New forecast layout! Learn more

10-Day Weather Forecast

Advertisements
Track Severe Weather on mobile